White Moon — D5EP7 — position and weather

sailwx.info

Track history (hours):
 
Tides and Currents Weather Stations Pressure Air Temp Water Temp Dewpoint Dewpoint Depression Visibility Wind Speed Wind Dir Waves Ship Positions

White Moon

Last reported at 2018-Jun-08 05:33 UTC. Time now 2018-Jun-24 15:09 UTC.
Position N 01°24' E 104°28'.
Warning: this ship's position is 16 days out of date.

Length 274 m; draft 16 m.

Type: Tanker. MMSI: 636016128.

Date/timePositionNaut miles runAvg speedWind from/ knotsBaromVisibWave heightAir tempDewpointWater temp
2018-Jun-08 05:33N 01°24' E 104°28'113.7
2018-Jun-08 05:29N 01°24' E 104°27'714.4
2018-Jun-08 04:58N 01°19' E 104°22'713.9
2018-Jun-08 04:30N 01°17' E 104°16'713.8
2018-Jun-08 04:00N 01°16' E 104°09'714.2
2018-Jun-08 03:31N 01°15' E 104°02'611.6
2018-Jun-08 02:59N 01°13' E 103°56'4 7.9
2018-Jun-08 02:30N 01°12' E 103°52'5 9.8
2018-Jun-08 01:59N 01°10' E 103°48'4 8.9
2018-Jun-08 01:30N 01°07' E 103°45'510.3
2018-Jun-08 01:00N 01°04' E 103°40'4 8.3
2018-Jun-08 00:30N 01°05' E 103°36'5 9.7
2018-Jun-08 00:00N 01°07' E 103°32'510.9
2018-Jun-07 23:30N 01°10' E 103°27'611.6
2018-Jun-07 23:00N 01°13' E 103°22'611.8
2018-Jun-07 22:29N 01°17' E 103°18'612.5
2018-Jun-07 21:59N 01°21' E 103°13'  
Track history (hours):
 
Tides and Currents Weather Stations Pressure Air Temp Water Temp Dewpoint Dewpoint Depression Visibility Wind Speed Wind Dir Waves Ship Positions

White Moon

Last reported at 2018-Jun-08 05:33 UTC. Time now 2018-Jun-24 15:09 UTC.
Position N 01°24' E 104°28'.
Warning: this ship's position is 16 days out of date.

Length 274 m; draft 16 m.

Type: Tanker. MMSI: 636016128.

Date/timePositionNaut miles runAvg speedWind from/ knotsBaromVisibWave heightAir tempDewpointWater temp
2018-Jun-08 05:33N 01°24' E 104°28'113.7
2018-Jun-08 05:29N 01°24' E 104°27'714.4
2018-Jun-08 04:58N 01°19' E 104°22'713.9
2018-Jun-08 04:30N 01°17' E 104°16'713.8
2018-Jun-08 04:00N 01°16' E 104°09'714.2
2018-Jun-08 03:31N 01°15' E 104°02'611.6
2018-Jun-08 02:59N 01°13' E 103°56'4 7.9
2018-Jun-08 02:30N 01°12' E 103°52'5 9.8
2018-Jun-08 01:59N 01°10' E 103°48'4 8.9
2018-Jun-08 01:30N 01°07' E 103°45'510.3
2018-Jun-08 01:00N 01°04' E 103°40'4 8.3
2018-Jun-08 00:30N 01°05' E 103°36'5 9.7
2018-Jun-08 00:00N 01°07' E 103°32'510.9
2018-Jun-07 23:30N 01°10' E 103°27'611.6
2018-Jun-07 23:00N 01°13' E 103°22'611.8
2018-Jun-07 22:29N 01°17' E 103°18'612.5
2018-Jun-07 21:59N 01°21' E 103°13'  

Dump ship's entire track history